Pagrindinis puslapis
METAR-TAF:

METAR-TAF

Oro uostai :

Chevak, Aliaska, Jungtinės Amerikos Valstijos

platuma: 61-32-27N, ilguma: 165-36-03W, Aukštis: 23 m

Dabartinis oras

Ataskaita buvo paskelbta 6 minutes, ne 03:16 UTC
Vėjas 22 kt iš Rytų
Temperatūra -12°C
Drėgmė 92%
Slėgis 1000 hPa
Matomumas: 2.0 km
Apsiniaukę ne aukštis 3400 ft
sniegas, rūkana

METAR: PAVA 170316Z AUTO 09022KT 1 1/4SM -SN BR OVC034 M12/M13 A2953 RMK AO2 PK WND 09028/0303 P0000 FZRANO

Laikas: 18:22 (03:22 UTC)


TAF: trūkstamas

Orai ataskaitas ir orų prognozės (METAR, TAF).

turimą stotys yra geltonos ir raudonos taškus žemėlapyje.

Perkelti pele per norėdami pamatyti stoties vardą.

Tada spustelėkite, norėdami matyti oro stebėjimo ir prognozės.

Norėdami pakeisti žemėlapį: spustelėkite ant žalios mygtukų su juodo kryžiaus žemyn,; žalią mygtuką su brūkšneliu, jei norite nutolinti; arba žalių rodyklių gretimoms žemėlapius.


METAR-TAF: